sensor_id;sensor_type;location;lat;lon;timestamp;P1;durP1;ratioP1;P2;durP2;ratioP2
75698;SDS011;64313;51.018;13.742;2024-03-02T00:00:14;40.80;;;23.75;;
75698;SDS011;64313;51.018;13.742;2024-03-02T00:02:43;42.97;;;24.40;;
75698;SDS011;64313;51.018;13.742;2024-03-02T00:05:16;43.13;;;23.13;;
75698;SDS011;64313;51.018;13.742;2024-03-02T00:07:43;40.35;;;23.15;;
75698;SDS011;64313;51.018;13.742;2024-03-02T00:10:10;39.45;;;23.10;;
75698;SDS011;64313;51.018;13.742;2024-03-02T00:12:39;41.15;;;22.77;;
75698;SDS011;64313;51.018;13.742;2024-03-02T00:15:05;40.03;;;22.27;;
75698;SDS011;64313;51.018;13.742;2024-03-02T00:17:43;38.65;;;22.42;;
75698;SDS011;64313;51.018;13.742;2024-03-02T00:20:09;40.28;;;23.30;;
75698;SDS011;64313;51.018;13.742;2024-03-02T00:22:35;38.45;;;22.23;;
75698;SDS011;64313;51.018;13.742;2024-03-02T00:25:02;40.55;;;23.08;;
75698;SDS011;64313;51.018;13.742;2024-03-02T00:27:28;41.22;;;22.42;;
75698;SDS011;64313;51.018;13.742;2024-03-02T00:29:54;38.15;;;21.08;;
75698;SDS011;64313;51.018;13.742;2024-03-02T00:32:19;37.83;;;22.35;;
75698;SDS011;64313;51.018;13.742;2024-03-02T00:34:44;39.00;;;21.15;;
75698;SDS011;64313;51.018;13.742;2024-03-02T00:37:09;39.97;;;21.77;;
75698;SDS011;64313;51.018;13.742;2024-03-02T00:39:36;42.40;;;21.20;;
75698;SDS011;64313;51.018;13.742;2024-03-02T00:42:02;40.65;;;22.10;;
75698;SDS011;64313;51.018;13.742;2024-03-02T00:44:27;41.40;;;22.45;;
75698;SDS011;64313;51.018;13.742;2024-03-02T00:46:59;39.20;;;21.40;;
75698;SDS011;64313;51.018;13.742;2024-03-02T00:49:25;36.90;;;20.83;;
75698;SDS011;64313;51.018;13.742;2024-03-02T00:51:52;34.97;;;20.33;;
75698;SDS011;64313;51.018;13.742;2024-03-02T00:54:19;38.15;;;19.95;;
75698;SDS011;64313;51.018;13.742;2024-03-02T00:56:49;40.25;;;20.80;;
75698;SDS011;64313;51.018;13.742;2024-03-02T00:59:15;39.30;;;22.58;;
75698;SDS011;64313;51.018;13.742;2024-03-02T01:01:40;34.17;;;20.30;;
75698;SDS011;64313;51.018;13.742;2024-03-02T01:04:07;36.67;;;21.33;;
75698;SDS011;64313;51.018;13.742;2024-03-02T01:06:32;39.17;;;20.77;;
75698;SDS011;64313;51.018;13.742;2024-03-02T01:08:58;38.05;;;20.92;;
75698;SDS011;64313;51.018;13.742;2024-03-02T01:11:23;38.83;;;22.58;;
75698;SDS011;64313;51.018;13.742;2024-03-02T01:13:48;35.80;;;20.75;;
75698;SDS011;64313;51.018;13.742;2024-03-02T01:16:14;40.10;;;22.23;;
75698;SDS011;64313;51.018;13.742;2024-03-02T01:18:40;35.25;;;21.30;;
75698;SDS011;64313;51.018;13.742;2024-03-02T01:21:06;37.85;;;21.60;;
75698;SDS011;64313;51.018;13.742;2024-03-02T01:23:32;36.55;;;20.63;;
75698;SDS011;64313;51.018;13.742;2024-03-02T01:25:57;38.10;;;21.15;;
75698;SDS011;64313;51.018;13.742;2024-03-02T01:28:23;38.58;;;20.75;;
75698;SDS011;64313;51.018;13.742;2024-03-02T01:30:48;37.85;;;21.25;;
75698;SDS011;64313;51.018;13.742;2024-03-02T01:33:14;35.67;;;20.40;;
75698;SDS011;64313;51.018;13.742;2024-03-02T01:35:40;37.25;;;20.75;;
75698;SDS011;64313;51.018;13.742;2024-03-02T01:38:08;37.75;;;20.50;;
75698;SDS011;64313;51.018;13.742;2024-03-02T01:40:37;35.92;;;20.17;;
75698;SDS011;64313;51.018;13.742;2024-03-02T01:43:06;36.53;;;21.30;;
75698;SDS011;64313;51.018;13.742;2024-03-02T01:45:32;37.90;;;21.05;;
75698;SDS011;64313;51.018;13.742;2024-03-02T01:47:58;37.10;;;21.25;;
75698;SDS011;64313;51.018;13.742;2024-03-02T01:50:27;39.58;;;20.77;;
75698;SDS011;64313;51.018;13.742;2024-03-02T01:52:54;41.13;;;21.77;;
75698;SDS011;64313;51.018;13.742;2024-03-02T01:55:20;35.80;;;20.48;;
75698;SDS011;64313;51.018;13.742;2024-03-02T01:57:46;36.78;;;20.58;;
75698;SDS011;64313;51.018;13.742;2024-03-02T02:00:14;37.30;;;20.75;;
75698;SDS011;64313;51.018;13.742;2024-03-02T02:02:40;37.85;;;21.92;;
75698;SDS011;64313;51.018;13.742;2024-03-02T02:05:05;36.00;;;21.38;;
75698;SDS011;64313;51.018;13.742;2024-03-02T02:07:31;36.13;;;21.63;;
75698;SDS011;64313;51.018;13.742;2024-03-02T02:09:56;36.10;;;20.02;;
75698;SDS011;64313;51.018;13.742;2024-03-02T02:12:25;37.28;;;20.98;;
75698;SDS011;64313;51.018;13.742;2024-03-02T02:14:50;34.88;;;20.30;;
75698;SDS011;64313;51.018;13.742;2024-03-02T02:17:15;37.25;;;21.48;;
75698;SDS011;64313;51.018;13.742;2024-03-02T02:19:41;38.67;;;21.13;;
75698;SDS011;64313;51.018;13.742;2024-03-02T02:22:07;39.38;;;20.50;;
75698;SDS011;64313;51.018;13.742;2024-03-02T02:24:33;36.72;;;20.17;;
75698;SDS011;64313;51.018;13.742;2024-03-02T02:26:58;37.22;;;20.75;;
75698;SDS011;64313;51.018;13.742;2024-03-02T02:29:23;34.08;;;20.10;;
75698;SDS011;64313;51.018;13.742;2024-03-02T02:31:49;37.58;;;20.55;;
75698;SDS011;64313;51.018;13.742;2024-03-02T02:34:14;36.33;;;20.48;;
75698;SDS011;64313;51.018;13.742;2024-03-02T02:36:40;37.35;;;20.73;;
75698;SDS011;64313;51.018;13.742;2024-03-02T02:39:06;39.78;;;21.35;;
75698;SDS011;64313;51.018;13.742;2024-03-02T02:41:35;36.95;;;20.13;;
75698;SDS011;64313;51.018;13.742;2024-03-02T02:44:01;38.15;;;21.08;;
75698;SDS011;64313;51.018;13.742;2024-03-02T02:46:26;37.88;;;20.48;;
75698;SDS011;64313;51.018;13.742;2024-03-02T02:48:51;34.67;;;20.40;;
75698;SDS011;64313;51.018;13.742;2024-03-02T02:51:18;35.40;;;19.80;;
75698;SDS011;64313;51.018;13.742;2024-03-02T02:53:43;35.10;;;19.88;;
75698;SDS011;64313;51.018;13.742;2024-03-02T02:56:10;37.47;;;20.80;;
75698;SDS011;64313;51.018;13.742;2024-03-02T02:58:35;33.88;;;20.27;;
75698;SDS011;64313;51.018;13.742;2024-03-02T03:01:00;36.55;;;19.77;;
75698;SDS011;64313;51.018;13.742;2024-03-02T03:03:26;36.55;;;19.85;;
75698;SDS011;64313;51.018;13.742;2024-03-02T03:05:51;33.67;;;20.88;;
75698;SDS011;64313;51.018;13.742;2024-03-02T03:08:17;36.70;;;20.63;;
75698;SDS011;64313;51.018;13.742;2024-03-02T03:10:42;36.45;;;20.45;;
75698;SDS011;64313;51.018;13.742;2024-03-02T03:13:07;38.13;;;20.52;;
75698;SDS011;64313;51.018;13.742;2024-03-02T03:15:36;33.03;;;19.95;;
75698;SDS011;64313;51.018;13.742;2024-03-02T03:18:04;35.80;;;19.70;;
75698;SDS011;64313;51.018;13.742;2024-03-02T03:20:30;35.95;;;20.67;;
75698;SDS011;64313;51.018;13.742;2024-03-02T03:22:56;35.13;;;19.33;;
75698;SDS011;64313;51.018;13.742;2024-03-02T03:25:22;36.88;;;19.75;;
75698;SDS011;64313;51.018;13.742;2024-03-02T03:27:47;35.22;;;20.15;;
75698;SDS011;64313;51.018;13.742;2024-03-02T03:30:12;35.00;;;20.75;;
75698;SDS011;64313;51.018;13.742;2024-03-02T03:32:38;35.55;;;19.63;;
75698;SDS011;64313;51.018;13.742;2024-03-02T03:35:04;38.22;;;21.58;;
75698;SDS011;64313;51.018;13.742;2024-03-02T03:37:30;37.30;;;20.75;;
75698;SDS011;64313;51.018;13.742;2024-03-02T03:40:01;38.55;;;20.98;;
75698;SDS011;64313;51.018;13.742;2024-03-02T03:42:27;40.55;;;20.83;;
75698;SDS011;64313;51.018;13.742;2024-03-02T03:44:53;38.33;;;20.77;;
75698;SDS011;64313;51.018;13.742;2024-03-02T03:47:18;42.05;;;21.77;;
75698;SDS011;64313;51.018;13.742;2024-03-02T03:49:45;41.35;;;21.33;;
75698;SDS011;64313;51.018;13.742;2024-03-02T03:52:10;36.45;;;20.83;;
75698;SDS011;64313;51.018;13.742;2024-03-02T03:54:35;38.05;;;20.95;;
75698;SDS011;64313;51.018;13.742;2024-03-02T03:57:03;38.55;;;22.08;;
75698;SDS011;64313;51.018;13.742;2024-03-02T03:59:28;41.33;;;21.77;;
75698;SDS011;64313;51.018;13.742;2024-03-02T04:01:54;40.55;;;21.75;;
75698;SDS011;64313;51.018;13.742;2024-03-02T04:04:19;40.10;;;21.10;;
75698;SDS011;64313;51.018;13.742;2024-03-02T04:06:44;36.35;;;20.90;;
75698;SDS011;64313;51.018;13.742;2024-03-02T04:09:10;35.53;;;20.05;;
75698;SDS011;64313;51.018;13.742;2024-03-02T04:11:35;39.97;;;22.13;;
75698;SDS011;64313;51.018;13.742;2024-03-02T04:14:00;37.95;;;20.55;;
75698;SDS011;64313;51.018;13.742;2024-03-02T04:16:26;37.75;;;19.98;;
75698;SDS011;64313;51.018;13.742;2024-03-02T04:18:51;36.63;;;20.63;;
75698;SDS011;64313;51.018;13.742;2024-03-02T04:21:16;35.63;;;20.08;;
75698;SDS011;64313;51.018;13.742;2024-03-02T04:23:42;38.47;;;20.27;;
75698;SDS011;64313;51.018;13.742;2024-03-02T04:26:07;36.45;;;20.23;;
75698;SDS011;64313;51.018;13.742;2024-03-02T04:28:32;40.78;;;20.25;;
75698;SDS011;64313;51.018;13.742;2024-03-02T04:30:58;36.10;;;19.55;;
75698;SDS011;64313;51.018;13.742;2024-03-02T04:33:23;38.95;;;21.27;;
75698;SDS011;64313;51.018;13.742;2024-03-02T04:35:48;41.38;;;20.77;;
75698;SDS011;64313;51.018;13.742;2024-03-02T04:38:14;44.20;;;21.40;;
75698;SDS011;64313;51.018;13.742;2024-03-02T04:40:39;41.97;;;20.85;;
75698;SDS011;64313;51.018;13.742;2024-03-02T04:43:04;41.72;;;20.70;;
75698;SDS011;64313;51.018;13.742;2024-03-02T04:45:30;41.70;;;20.77;;
75698;SDS011;64313;51.018;13.742;2024-03-02T04:47:55;40.53;;;20.83;;
75698;SDS011;64313;51.018;13.742;2024-03-02T04:50:20;42.25;;;21.90;;
75698;SDS011;64313;51.018;13.742;2024-03-02T04:52:45;38.80;;;21.05;;
75698;SDS011;64313;51.018;13.742;2024-03-02T04:55:11;41.50;;;21.02;;
75698;SDS011;64313;51.018;13.742;2024-03-02T04:57:54;44.67;;;21.70;;
75698;SDS011;64313;51.018;13.742;2024-03-02T05:00:21;43.17;;;20.58;;
75698;SDS011;64313;51.018;13.742;2024-03-02T05:02:46;41.78;;;20.92;;
75698;SDS011;64313;51.018;13.742;2024-03-02T05:05:13;40.28;;;20.13;;
75698;SDS011;64313;51.018;13.742;2024-03-02T05:07:40;44.03;;;21.90;;
75698;SDS011;64313;51.018;13.742;2024-03-02T05:10:07;42.35;;;21.20;;
75698;SDS011;64313;51.018;13.742;2024-03-02T05:12:33;45.78;;;22.15;;
75698;SDS011;64313;51.018;13.742;2024-03-02T05:15:07;39.42;;;20.13;;
75698;SDS011;64313;51.018;13.742;2024-03-02T05:17:33;41.25;;;21.38;;
75698;SDS011;64313;51.018;13.742;2024-03-02T05:19:58;47.38;;;21.85;;
75698;SDS011;64313;51.018;13.742;2024-03-02T05:22:24;43.13;;;21.08;;
75698;SDS011;64313;51.018;13.742;2024-03-02T05:24:49;41.75;;;20.83;;
75698;SDS011;64313;51.018;13.742;2024-03-02T05:27:14;44.20;;;20.73;;
75698;SDS011;64313;51.018;13.742;2024-03-02T05:29:40;42.47;;;19.95;;
75698;SDS011;64313;51.018;13.742;2024-03-02T05:32:05;46.17;;;21.17;;
75698;SDS011;64313;51.018;13.742;2024-03-02T05:34:30;44.53;;;21.85;;
75698;SDS011;64313;51.018;13.742;2024-03-02T05:36:57;39.55;;;20.10;;
75698;SDS011;64313;51.018;13.742;2024-03-02T05:39:23;43.20;;;21.08;;
75698;SDS011;64313;51.018;13.742;2024-03-02T05:41:48;47.85;;;21.95;;
75698;SDS011;64313;51.018;13.742;2024-03-02T05:44:14;38.08;;;20.23;;
75698;SDS011;64313;51.018;13.742;2024-03-02T05:46:41;44.05;;;21.40;;
75698;SDS011;64313;51.018;13.742;2024-03-02T05:49:10;38.40;;;20.58;;
75698;SDS011;64313;51.018;13.742;2024-03-02T05:51:56;41.75;;;20.60;;
75698;SDS011;64313;51.018;13.742;2024-03-02T05:54:21;43.72;;;21.08;;
75698;SDS011;64313;51.018;13.742;2024-03-02T05:56:46;39.25;;;21.38;;
75698;SDS011;64313;51.018;13.742;2024-03-02T05:59:12;42.67;;;20.27;;
75698;SDS011;64313;51.018;13.742;2024-03-02T06:01:43;39.42;;;21.17;;
75698;SDS011;64313;51.018;13.742;2024-03-02T06:04:09;41.00;;;20.08;;
75698;SDS011;64313;51.018;13.742;2024-03-02T06:06:36;39.90;;;19.98;;
75698;SDS011;64313;51.018;13.742;2024-03-02T06:09:03;39.30;;;19.73;;
75698;SDS011;64313;51.018;13.742;2024-03-02T06:11:40;38.95;;;19.95;;
75698;SDS011;64313;51.018;13.742;2024-03-02T06:14:06;41.03;;;19.25;;
75698;SDS011;64313;51.018;13.742;2024-03-02T06:16:33;42.25;;;20.27;;
75698;SDS011;64313;51.018;13.742;2024-03-02T06:18:59;38.28;;;19.40;;
75698;SDS011;64313;51.018;13.742;2024-03-02T06:21:24;40.33;;;21.05;;
75698;SDS011;64313;51.018;13.742;2024-03-02T06:23:50;39.17;;;18.48;;
75698;SDS011;64313;51.018;13.742;2024-03-02T06:26:15;39.95;;;19.13;;
75698;SDS011;64313;51.018;13.742;2024-03-02T06:28:41;38.50;;;19.52;;
75698;SDS011;64313;51.018;13.742;2024-03-02T06:31:06;37.35;;;18.30;;
75698;SDS011;64313;51.018;13.742;2024-03-02T06:33:32;39.22;;;19.55;;
75698;SDS011;64313;51.018;13.742;2024-03-02T06:35:57;34.22;;;18.33;;
75698;SDS011;64313;51.018;13.742;2024-03-02T06:38:22;37.05;;;18.42;;
75698;SDS011;64313;51.018;13.742;2024-03-02T06:40:48;35.45;;;18.30;;
75698;SDS011;64313;51.018;13.742;2024-03-02T06:43:13;36.13;;;18.55;;
75698;SDS011;64313;51.018;13.742;2024-03-02T06:45:38;35.45;;;18.30;;
75698;SDS011;64313;51.018;13.742;2024-03-02T06:48:04;34.90;;;17.67;;
75698;SDS011;64313;51.018;13.742;2024-03-02T06:50:30;34.42;;;17.23;;
75698;SDS011;64313;51.018;13.742;2024-03-02T06:52:55;36.45;;;19.15;;
75698;SDS011;64313;51.018;13.742;2024-03-02T06:55:23;36.55;;;18.25;;
75698;SDS011;64313;51.018;13.742;2024-03-02T06:57:52;37.53;;;18.63;;
75698;SDS011;64313;51.018;13.742;2024-03-02T07:00:17;37.47;;;20.88;;
75698;SDS011;64313;51.018;13.742;2024-03-02T07:02:45;39.17;;;20.50;;
75698;SDS011;64313;51.018;13.742;2024-03-02T07:05:10;38.90;;;19.45;;
75698;SDS011;64313;51.018;13.742;2024-03-02T07:07:36;36.15;;;19.00;;
75698;SDS011;64313;51.018;13.742;2024-03-02T07:10:02;36.97;;;18.95;;
75698;SDS011;64313;51.018;13.742;2024-03-02T07:12:32;36.38;;;19.17;;
75698;SDS011;64313;51.018;13.742;2024-03-02T07:14:58;36.35;;;19.48;;
75698;SDS011;64313;51.018;13.742;2024-03-02T07:17:29;35.38;;;18.27;;
75698;SDS011;64313;51.018;13.742;2024-03-02T07:19:55;37.25;;;19.15;;
75698;SDS011;64313;51.018;13.742;2024-03-02T07:22:20;34.38;;;18.35;;
75698;SDS011;64313;51.018;13.742;2024-03-02T07:24:46;38.33;;;20.02;;
75698;SDS011;64313;51.018;13.742;2024-03-02T07:27:12;34.17;;;17.83;;
75698;SDS011;64313;51.018;13.742;2024-03-02T07:29:38;34.38;;;17.70;;
75698;SDS011;64313;51.018;13.742;2024-03-02T07:32:04;33.88;;;18.25;;
75698;SDS011;64313;51.018;13.742;2024-03-02T07:34:30;32.15;;;16.42;;
75698;SDS011;64313;51.018;13.742;2024-03-02T07:36:55;32.47;;;17.10;;
75698;SDS011;64313;51.018;13.742;2024-03-02T07:39:21;30.88;;;17.33;;
75698;SDS011;64313;51.018;13.742;2024-03-02T07:41:46;32.38;;;16.27;;
75698;SDS011;64313;51.018;13.742;2024-03-02T07:44:12;31.17;;;16.63;;
75698;SDS011;64313;51.018;13.742;2024-03-02T07:46:43;33.50;;;18.13;;
75698;SDS011;64313;51.018;13.742;2024-03-02T07:49:09;30.65;;;16.48;;
75698;SDS011;64313;51.018;13.742;2024-03-02T07:51:34;30.40;;;16.73;;
75698;SDS011;64313;51.018;13.742;2024-03-02T07:54:00;34.30;;;17.00;;
75698;SDS011;64313;51.018;13.742;2024-03-02T07:56:25;31.00;;;17.17;;
75698;SDS011;64313;51.018;13.742;2024-03-02T07:58:51;33.40;;;16.92;;
75698;SDS011;64313;51.018;13.742;2024-03-02T08:01:16;34.03;;;18.73;;
75698;SDS011;64313;51.018;13.742;2024-03-02T08:03:42;38.15;;;18.80;;
75698;SDS011;64313;51.018;13.742;2024-03-02T08:06:08;35.45;;;18.92;;
75698;SDS011;64313;51.018;13.742;2024-03-02T08:08:33;40.83;;;18.75;;
75698;SDS011;64313;51.018;13.742;2024-03-02T08:10:58;40.03;;;19.88;;
75698;SDS011;64313;51.018;13.742;2024-03-02T08:13:24;38.42;;;19.33;;
75698;SDS011;64313;51.018;13.742;2024-03-02T08:15:49;40.47;;;19.50;;
75698;SDS011;64313;51.018;13.742;2024-03-02T08:18:14;44.03;;;20.27;;
75698;SDS011;64313;51.018;13.742;2024-03-02T08:20:40;39.47;;;18.75;;
75698;SDS011;64313;51.018;13.742;2024-03-02T08:23:05;49.67;;;20.90;;
75698;SDS011;64313;51.018;13.742;2024-03-02T08:25:31;45.65;;;20.85;;
75698;SDS011;64313;51.018;13.742;2024-03-02T08:27:57;47.67;;;21.33;;
75698;SDS011;64313;51.018;13.742;2024-03-02T08:30:23;49.50;;;21.30;;
75698;SDS011;64313;51.018;13.742;2024-03-02T08:32:48;50.63;;;21.95;;
75698;SDS011;64313;51.018;13.742;2024-03-02T08:35:13;47.70;;;21.40;;
75698;SDS011;64313;51.018;13.742;2024-03-02T08:37:39;52.00;;;21.40;;
75698;SDS011;64313;51.018;13.742;2024-03-02T08:40:07;50.35;;;21.55;;
75698;SDS011;64313;51.018;13.742;2024-03-02T08:42:33;52.58;;;22.05;;
75698;SDS011;64313;51.018;13.742;2024-03-02T08:44:58;49.70;;;21.23;;
75698;SDS011;64313;51.018;13.742;2024-03-02T08:47:25;48.70;;;20.52;;
75698;SDS011;64313;51.018;13.742;2024-03-02T08:49:51;46.60;;;19.38;;
75698;SDS011;64313;51.018;13.742;2024-03-02T08:52:17;46.20;;;20.40;;
75698;SDS011;64313;51.018;13.742;2024-03-02T08:54:43;47.50;;;19.40;;
75698;SDS011;64313;51.018;13.742;2024-03-02T08:57:08;44.28;;;19.23;;
75698;SDS011;64313;51.018;13.742;2024-03-02T08:59:34;43.58;;;19.48;;
75698;SDS011;64313;51.018;13.742;2024-03-02T09:01:59;40.58;;;17.83;;
75698;SDS011;64313;51.018;13.742;2024-03-02T09:04:24;38.78;;;17.50;;
75698;SDS011;64313;51.018;13.742;2024-03-02T09:06:50;39.53;;;16.80;;
75698;SDS011;64313;51.018;13.742;2024-03-02T09:09:15;42.33;;;16.75;;
75698;SDS011;64313;51.018;13.742;2024-03-02T09:11:40;40.47;;;17.92;;
75698;SDS011;64313;51.018;13.742;2024-03-02T09:14:06;41.38;;;17.67;;
75698;SDS011;64313;51.018;13.742;2024-03-02T09:16:31;37.47;;;15.70;;
75698;SDS011;64313;51.018;13.742;2024-03-02T09:18:57;33.25;;;14.98;;
75698;SDS011;64313;51.018;13.742;2024-03-02T09:21:22;31.75;;;14.43;;
75698;SDS011;64313;51.018;13.742;2024-03-02T09:23:48;30.85;;;14.30;;
75698;SDS011;64313;51.018;13.742;2024-03-02T09:26:13;30.80;;;14.45;;
75698;SDS011;64313;51.018;13.742;2024-03-02T09:28:42;30.63;;;13.77;;
75698;SDS011;64313;51.018;13.742;2024-03-02T09:31:08;31.58;;;14.00;;
75698;SDS011;64313;51.018;13.742;2024-03-02T09:33:33;31.75;;;14.48;;
75698;SDS011;64313;51.018;13.742;2024-03-02T09:35:58;30.50;;;14.65;;
75698;SDS011;64313;51.018;13.742;2024-03-02T09:38:24;27.13;;;13.27;;
75698;SDS011;64313;51.018;13.742;2024-03-02T09:40:49;29.15;;;13.68;;
75698;SDS011;64313;51.018;13.742;2024-03-02T09:43:14;26.67;;;12.93;;
75698;SDS011;64313;51.018;13.742;2024-03-02T09:45:40;29.48;;;13.95;;
75698;SDS011;64313;51.018;13.742;2024-03-02T09:48:06;29.05;;;13.88;;
75698;SDS011;64313;51.018;13.742;2024-03-02T09:50:31;25.90;;;12.55;;
75698;SDS011;64313;51.018;13.742;2024-03-02T09:52:57;26.67;;;12.90;;
75698;SDS011;64313;51.018;13.742;2024-03-02T09:55:23;25.48;;;12.40;;
75698;SDS011;64313;51.018;13.742;2024-03-02T09:57:50;26.48;;;12.40;;
75698;SDS011;64313;51.018;13.742;2024-03-02T10:00:16;25.42;;;12.32;;
75698;SDS011;64313;51.018;13.742;2024-03-02T10:02:42;27.17;;;13.15;;
75698;SDS011;64313;51.018;13.742;2024-03-02T10:05:11;27.45;;;13.20;;
75698;SDS011;64313;51.018;13.742;2024-03-02T10:07:39;29.88;;;13.85;;
75698;SDS011;64313;51.018;13.742;2024-03-02T10:10:12;30.98;;;14.23;;
75698;SDS011;64313;51.018;13.742;2024-03-02T10:12:39;29.25;;;13.48;;
75698;SDS011;64313;51.018;13.742;2024-03-02T10:15:04;30.75;;;14.63;;
75698;SDS011;64313;51.018;13.742;2024-03-02T10:17:31;31.15;;;14.15;;
75698;SDS011;64313;51.018;13.742;2024-03-02T10:19:56;27.58;;;13.40;;
75698;SDS011;64313;51.018;13.742;2024-03-02T10:22:23;29.08;;;13.48;;
75698;SDS011;64313;51.018;13.742;2024-03-02T10:24:49;30.38;;;14.07;;
75698;SDS011;64313;51.018;13.742;2024-03-02T10:27:18;30.83;;;13.50;;
75698;SDS011;64313;51.018;13.742;2024-03-02T10:29:48;29.75;;;13.82;;
75698;SDS011;64313;51.018;13.742;2024-03-02T10:32:14;30.80;;;14.20;;
75698;SDS011;64313;51.018;13.742;2024-03-02T10:34:41;33.40;;;14.63;;
75698;SDS011;64313;51.018;13.742;2024-03-02T10:37:10;32.25;;;14.15;;
75698;SDS011;64313;51.018;13.742;2024-03-02T10:39:36;32.75;;;14.45;;
75698;SDS011;64313;51.018;13.742;2024-03-02T10:42:03;28.67;;;13.70;;
75698;SDS011;64313;51.018;13.742;2024-03-02T10:44:29;28.13;;;14.02;;
75698;SDS011;64313;51.018;13.742;2024-03-02T10:46:56;30.48;;;14.30;;
75698;SDS011;64313;51.018;13.742;2024-03-02T10:49:24;27.95;;;14.65;;
75698;SDS011;64313;51.018;13.742;2024-03-02T10:51:51;28.40;;;13.25;;
75698;SDS011;64313;51.018;13.742;2024-03-02T10:54:16;29.52;;;12.55;;
75698;SDS011;64313;51.018;13.742;2024-03-02T10:56:44;27.27;;;12.50;;
75698;SDS011;64313;51.018;13.742;2024-03-02T10:59:28;26.63;;;12.38;;
75698;SDS011;64313;51.018;13.742;2024-03-02T11:01:57;23.58;;;11.63;;
75698;SDS011;64313;51.018;13.742;2024-03-02T11:04:27;23.83;;;10.55;;
75698;SDS011;64313;51.018;13.742;2024-03-02T11:06:58;13.80;;;7.00;;
75698;SDS011;64313;51.018;13.742;2024-03-02T11:09:25;13.65;;;7.38;;
75698;SDS011;64313;51.018;13.742;2024-03-02T11:11:56;14.23;;;6.70;;
75698;SDS011;64313;51.018;13.742;2024-03-02T11:14:37;14.68;;;7.85;;
75698;SDS011;64313;51.018;13.742;2024-03-02T11:17:08;13.48;;;6.53;;
75698;SDS011;64313;51.018;13.742;2024-03-02T11:19:35;11.38;;;6.53;;
75698;SDS011;64313;51.018;13.742;2024-03-02T11:22:03;13.20;;;6.60;;
75698;SDS011;64313;51.018;13.742;2024-03-02T11:24:30;13.23;;;6.50;;
75698;SDS011;64313;51.018;13.742;2024-03-02T11:26:59;14.57;;;6.22;;
75698;SDS011;64313;51.018;13.742;2024-03-02T11:32:00;12.27;;;6.53;;
75698;SDS011;64313;51.018;13.742;2024-03-02T11:34:39;14.45;;;6.35;;
75698;SDS011;64313;51.018;13.742;2024-03-02T11:37:10;12.13;;;6.43;;
75698;SDS011;64313;51.018;13.742;2024-03-02T11:39:37;11.15;;;6.25;;
75698;SDS011;64313;51.018;13.742;2024-03-02T11:42:05;15.00;;;6.15;;
75698;SDS011;64313;51.018;13.742;2024-03-02T11:44:32;12.68;;;6.40;;
75698;SDS011;64313;51.018;13.742;2024-03-02T11:47:01;11.20;;;6.30;;
75698;SDS011;64313;51.018;13.742;2024-03-02T11:49:40;12.98;;;6.50;;
75698;SDS011;64313;51.018;13.742;2024-03-02T11:52:08;13.02;;;7.07;;
75698;SDS011;64313;51.018;13.742;2024-03-02T11:54:41;11.95;;;5.80;;
75698;SDS011;64313;51.018;13.742;2024-03-02T11:57:11;12.73;;;6.28;;
75698;SDS011;64313;51.018;13.742;2024-03-02T11:59:39;11.23;;;5.78;;
75698;SDS011;64313;51.018;13.742;2024-03-02T12:02:04;13.73;;;6.20;;
75698;SDS011;64313;51.018;13.742;2024-03-02T12:04:30;12.73;;;5.75;;
75698;SDS011;64313;51.018;13.742;2024-03-02T12:06:59;12.90;;;6.10;;
75698;SDS011;64313;51.018;13.742;2024-03-02T12:09:28;13.80;;;7.00;;
75698;SDS011;64313;51.018;13.742;2024-03-02T12:12:03;14.27;;;6.22;;
75698;SDS011;64313;51.018;13.742;2024-03-02T12:14:33;12.10;;;5.78;;
75698;SDS011;64313;51.018;13.742;2024-03-02T12:17:00;14.68;;;6.40;;
75698;SDS011;64313;51.018;13.742;2024-03-02T12:19:26;11.25;;;5.45;;
75698;SDS011;64313;51.018;13.742;2024-03-02T12:21:52;12.25;;;5.90;;
75698;SDS011;64313;51.018;13.742;2024-03-02T12:24:18;14.23;;;5.53;;
75698;SDS011;64313;51.018;13.742;2024-03-02T12:26:44;12.75;;;5.82;;
75698;SDS011;64313;51.018;13.742;2024-03-02T12:29:10;15.02;;;6.13;;
75698;SDS011;64313;51.018;13.742;2024-03-02T12:31:36;14.57;;;6.57;;
75698;SDS011;64313;51.018;13.742;2024-03-02T12:34:02;16.17;;;8.10;;
75698;SDS011;64313;51.018;13.742;2024-03-02T12:36:29;20.20;;;8.68;;
75698;SDS011;64313;51.018;13.742;2024-03-02T12:38:54;18.25;;;9.15;;
75698;SDS011;64313;51.018;13.742;2024-03-02T12:41:20;20.67;;;9.48;;
75698;SDS011;64313;51.018;13.742;2024-03-02T12:43:45;18.48;;;8.13;;
75698;SDS011;64313;51.018;13.742;2024-03-02T12:46:11;18.27;;;8.63;;
75698;SDS011;64313;51.018;13.742;2024-03-02T12:48:37;16.38;;;7.88;;
75698;SDS011;64313;51.018;13.742;2024-03-02T12:51:04;16.42;;;8.25;;
75698;SDS011;64313;51.018;13.742;2024-03-02T12:53:30;16.92;;;7.65;;
75698;SDS011;64313;51.018;13.742;2024-03-02T12:55:56;20.70;;;8.18;;
75698;SDS011;64313;51.018;13.742;2024-03-02T12:58:23;15.10;;;7.75;;
75698;SDS011;64313;51.018;13.742;2024-03-02T13:00:48;18.33;;;9.68;;
75698;SDS011;64313;51.018;13.742;2024-03-02T13:03:14;18.35;;;8.50;;
75698;SDS011;64313;51.018;13.742;2024-03-02T13:05:43;22.10;;;9.60;;
75698;SDS011;64313;51.018;13.742;2024-03-02T13:08:13;19.90;;;9.75;;
75698;SDS011;64313;51.018;13.742;2024-03-02T13:10:38;21.25;;;9.88;;
75698;SDS011;64313;51.018;13.742;2024-03-02T13:13:06;22.92;;;10.18;;
75698;SDS011;64313;51.018;13.742;2024-03-02T13:15:32;16.88;;;8.93;;
75698;SDS011;64313;51.018;13.742;2024-03-02T13:17:58;25.92;;;10.07;;
75698;SDS011;64313;51.018;13.742;2024-03-02T13:20:29;19.58;;;9.95;;
75698;SDS011;64313;51.018;13.742;2024-03-02T13:22:56;21.90;;;10.38;;
75698;SDS011;64313;51.018;13.742;2024-03-02T13:25:22;20.77;;;9.45;;
75698;SDS011;64313;51.018;13.742;2024-03-02T13:27:47;21.38;;;10.30;;
75698;SDS011;64313;51.018;13.742;2024-03-02T13:30:13;21.48;;;9.55;;
75698;SDS011;64313;51.018;13.742;2024-03-02T13:32:38;19.85;;;9.85;;
75698;SDS011;64313;51.018;13.742;2024-03-02T13:35:03;18.15;;;8.95;;
75698;SDS011;64313;51.018;13.742;2024-03-02T13:37:29;19.58;;;9.05;;
75698;SDS011;64313;51.018;13.742;2024-03-02T13:39:54;19.77;;;8.63;;
75698;SDS011;64313;51.018;13.742;2024-03-02T13:42:19;17.00;;;8.57;;
75698;SDS011;64313;51.018;13.742;2024-03-02T13:44:45;20.48;;;8.75;;
75698;SDS011;64313;51.018;13.742;2024-03-02T13:47:13;19.77;;;9.60;;
75698;SDS011;64313;51.018;13.742;2024-03-02T13:49:38;17.33;;;8.80;;
75698;SDS011;64313;51.018;13.742;2024-03-02T13:52:08;17.85;;;8.95;;
75698;SDS011;64313;51.018;13.742;2024-03-02T13:54:41;20.45;;;8.98;;
75698;SDS011;64313;51.018;13.742;2024-03-02T13:57:07;17.77;;;8.50;;
75698;SDS011;64313;51.018;13.742;2024-03-02T13:59:34;19.98;;;9.30;;
75698;SDS011;64313;51.018;13.742;2024-03-02T14:02:01;18.05;;;8.88;;
75698;SDS011;64313;51.018;13.742;2024-03-02T14:04:27;20.00;;;10.70;;
75698;SDS011;64313;51.018;13.742;2024-03-02T14:06:52;20.55;;;10.45;;
75698;SDS011;64313;51.018;13.742;2024-03-02T14:09:18;21.02;;;10.30;;